Time;durP1;ratioP1;P1;durP2;ratioP2;P2;SDS_P1;SDS_P2;PMS_P1;PMS_P2;Temp;Humidity;BMP_temperature;BMP_pressure;BME280_temperature;BME280_humidity;BME280_pressure;Samples;Min_cycle;Max_cycle;Signal;HPM_P1;HPM_P2
2022/08/01 00:01:56;;;;;;;5.97;1.27;;;20.20;99.90;;;;;;5076695;28;20542;-71
2022/08/01 00:04:23;;;;;;;3.53;1.17;;;20.40;99.90;;;;;;5094182;28;20564;-70
2022/08/01 00:06:50;;;;;;;3.80;1.37;;;20.00;99.90;;;;;;5094322;28;20186;-71
2022/08/01 00:09:18;;;;;;;3.73;1.10;;;20.30;99.90;;;;;;5094240;28;20669;-70
2022/08/01 00:11:45;;;;;;;4.93;1.10;;;20.60;99.90;;;;;;5109951;28;20239;-70
2022/08/01 00:14:12;;;;;;;5.93;1.30;;;20.60;99.90;;;;;;5114636;28;20544;-70
2022/08/01 00:16:40;;;;;;;3.23;1.00;;;20.50;99.90;;;;;;5105507;28;20175;-70
2022/08/01 00:19:07;;;;;;;1.47;0.70;;;20.30;99.90;;;;;;5110446;27;20205;-69
2022/08/01 00:21:34;;;;;;;2.47;1.10;;;20.90;99.90;;;;;;5097047;28;20183;-69
2022/08/01 00:24:02;;;;;;;2.10;1.00;;;21.20;99.90;;;;;;5093551;28;20657;-69
2022/08/01 00:26:29;;;;;;;2.00;0.70;;;21.10;99.90;;;;;;5093841;28;20183;-70
2022/08/01 00:28:56;;;;;;;3.27;0.70;;;20.50;99.90;;;;;;5094957;28;20973;-69
2022/08/01 00:31:24;;;;;;;3.33;1.10;;;20.80;99.90;;;;;;5093586;28;20230;-69
2022/08/01 00:33:51;;;;;;;5.17;1.20;;;20.90;99.90;;;;;;5093965;28;20169;-70
2022/08/01 00:36:21;;;;;;;2.67;0.90;;;21.40;99.90;;;;;;5093534;28;20192;-71
2022/08/01 00:38:49;;;;;;;3.00;0.83;;;21.20;99.90;;;;;;5109430;28;20263;-70
2022/08/01 00:41:16;;;;;;;1.63;0.93;;;21.20;99.90;;;;;;5118237;28;20210;-71
2022/08/01 00:43:44;;;;;;;2.97;0.70;;;21.10;99.90;;;;;;5108745;28;20183;-71
2022/08/01 00:46:11;;;;;;;2.97;0.77;;;21.50;99.90;;;;;;5097271;28;20550;-71
2022/08/01 00:48:38;;;;;;;1.83;0.77;;;22.10;99.90;;;;;;5101583;28;20249;-69
2022/08/01 00:51:07;;;;;;;4.17;0.90;;;22.30;99.90;;;;;;5108016;28;20174;-70
2022/08/01 00:53:35;;;;;;;1.33;0.60;;;21.40;99.90;;;;;;5113922;28;20272;-70
2022/08/01 00:56:02;;;;;;;1.90;0.77;;;21.20;99.90;;;;;;5112272;28;20599;-70
2022/08/01 00:58:32;;;;;;;1.17;0.70;;;21.80;99.90;;;;;;5107552;28;20204;-71
2022/08/01 01:01:00;;;;;;;1.73;1.40;;;22.00;99.90;;;;;;5089831;28;20237;-70
2022/08/01 01:03:27;;;;;;;1.73;1.20;;;21.70;99.90;;;;;;5093088;28;20176;-71
2022/08/01 01:06:31;;;;;;;2.20;0.87;;;21.60;99.90;;;;;;5108002;28;20178;-71
2022/08/01 01:09:16;;;;;;;3.20;0.90;;;21.30;99.90;;;;;;5113463;28;20902;-70
2022/08/01 01:12:08;;;;;;;2.33;1.27;;;22.00;99.90;;;;;;5113509;28;20167;-71
2022/08/01 01:14:46;;;;;;;2.63;0.77;;;22.50;99.90;;;;;;5110339;28;20280;-71
2022/08/01 01:17:20;;;;;;;2.53;0.90;;;22.90;99.90;;;;;;5089451;28;20213;-70
2022/08/01 01:19:51;;;;;;;0.73;0.60;;;22.40;99.90;;;;;;5088417;28;20579;-69
2022/08/01 01:22:32;;;;;;;2.20;0.83;;;22.70;99.90;;;;;;5094116;28;20182;-70
2022/08/01 01:25:09;;;;;;;0.77;0.60;;;22.90;99.90;;;;;;5103724;28;20613;-69
2022/08/01 01:28:18;;;;;;;2.73;0.60;;;23.20;99.90;;;;;;5072527;28;20175;-68
2022/08/01 01:30:49;;;;;;;2.40;0.57;;;23.40;99.90;;;;;;5078492;28;20251;-69
2022/08/01 01:33:19;;;;;;;1.07;0.60;;;23.20;99.90;;;;;;5110572;28;20626;-69
2022/08/01 01:35:51;;;;;;;0.83;0.67;;;22.70;99.90;;;;;;5106081;28;20562;-69
2022/08/01 01:38:29;;;;;;;2.80;0.73;;;23.10;99.90;;;;;;5112258;28;20709;-70
2022/08/01 01:40:59;;;;;;;1.10;0.70;;;22.90;99.90;;;;;;5096063;28;20190;-70
2022/08/01 01:43:28;;;;;;;5.70;0.80;;;23.50;99.90;;;;;;5104250;28;20186;-69
2022/08/01 01:45:56;;;;;;;3.30;0.70;;;23.90;99.90;;;;;;5106748;28;20172;-68
2022/08/01 01:48:25;;;;;;;3.53;0.73;;;23.30;99.90;;;;;;5103456;28;20171;-68
2022/08/01 01:50:53;;;;;;;5.47;0.87;;;22.70;99.90;;;;;;5106717;28;20273;-68
2022/08/01 01:53:23;;;;;;;2.63;0.70;;;21.90;99.90;;;;;;5083601;28;20529;-70
2022/08/01 01:55:54;;;;;;;3.10;0.93;;;22.10;99.90;;;;;;5095402;28;20215;-70
2022/08/01 01:58:24;;;;;;;5.50;0.73;;;21.80;99.90;;;;;;5087975;28;20225;-70
2022/08/01 02:00:53;;;;;;;2.80;0.90;;;22.00;99.90;;;;;;5083440;28;20224;-69
2022/08/01 02:03:22;;;;;;;2.40;0.80;;;22.40;99.90;;;;;;5071171;28;20191;-69
2022/08/01 02:05:52;;;;;;;0.60;0.57;;;22.50;99.90;;;;;;5095900;28;20185;-69
2022/08/01 02:08:20;;;;;;;1.63;0.90;;;22.40;99.90;;;;;;5094135;28;20194;-69
2022/08/01 02:13:37;;;;;;;1.80;0.70;;;22.60;99.90;;;;;;5112555;28;20549;-69
2022/08/01 02:16:06;;;;;;;1.67;0.60;;;22.50;99.90;;;;;;5097002;28;20225;-69
2022/08/01 02:18:34;;;;;;;1.43;0.67;;;23.00;99.90;;;;;;5096800;28;20207;-69
2022/08/01 02:21:05;;;;;;;6.77;0.70;;;23.00;99.90;;;;;;5091676;28;20264;-70
2022/08/01 02:23:34;;;;;;;7.90;0.70;;;23.20;99.90;;;;;;5095051;28;20191;-69
2022/08/01 02:26:06;;;;;;;3.00;0.60;;;22.80;99.90;;;;;;5101131;28;20214;-70
2022/08/01 02:28:46;;;;;;;0.90;0.60;;;22.50;99.90;;;;;;5105814;28;20217;-69
2022/08/01 02:31:17;;;;;;;1.20;0.50;;;23.10;99.90;;;;;;5097190;28;20219;-70
2022/08/01 02:33:54;;;;;;;4.70;0.43;;;23.60;99.90;;;;;;5091723;28;20299;-69
2022/08/01 02:36:25;;;;;;;1.60;0.50;;;23.90;97.90;;;;;;5091579;28;20189;-70
2022/08/01 02:38:55;;;;;;;0.50;0.50;;;23.80;96.20;;;;;;5089233;28;20217;-69
2022/08/01 02:41:24;;;;;;;0.70;0.40;;;23.70;91.70;;;;;;5098745;28;20174;-69
2022/08/01 02:43:57;;;;;;;2.80;0.57;;;23.60;82.70;;;;;;5092270;28;20649;-69
2022/08/01 02:46:38;;;;;;;4.63;0.67;;;23.60;82.50;;;;;;5109555;28;20652;-69
2022/08/01 02:49:09;;;;;;;1.10;0.47;;;24.10;79.30;;;;;;5111772;28;20217;-69
2022/08/01 02:51:39;;;;;;;1.30;0.30;;;24.40;76.30;;;;;;5111861;28;20529;-70
2022/08/01 02:54:09;;;;;;;1.37;0.60;;;24.70;66.10;;;;;;5111633;28;20232;-70
2022/08/01 02:56:37;;;;;;;1.03;0.30;;;24.20;68.00;;;;;;5111634;28;20170;-70
2022/08/01 02:59:25;;;;;;;1.30;0.40;;;23.80;63.40;;;;;;5111693;28;20198;-70
2022/08/01 03:01:55;;;;;;;1.13;0.60;;;23.70;62.80;;;;;;5105411;28;20183;-69
2022/08/01 03:04:24;;;;;;;0.87;0.40;;;23.70;63.60;;;;;;5107618;28;20183;-69
2022/08/01 03:06:54;;;;;;;2.97;0.50;;;23.50;62.10;;;;;;5095591;28;20267;-69
2022/08/01 03:09:23;;;;;;;1.20;0.50;;;23.50;65.80;;;;;;5108819;28;20182;-70
2022/08/01 03:11:51;;;;;;;1.63;0.40;;;23.30;65.00;;;;;;5093284;28;20177;-70
2022/08/01 03:14:21;;;;;;;2.07;0.50;;;23.60;60.20;;;;;;5111239;28;20166;-68
2022/08/01 03:16:50;;;;;;;0.30;0.30;;;23.90;57.90;;;;;;5106849;28;20178;-69
2022/08/01 03:19:21;;;;;;;1.13;0.40;;;23.50;57.20;;;;;;5113088;28;20214;-68
2022/08/01 03:21:50;;;;;;;0.40;0.33;;;23.40;55.70;;;;;;5115742;28;20174;-70
2022/08/01 03:24:18;;;;;;;2.13;0.37;;;23.70;57.50;;;;;;5107499;28;20219;-69
2022/08/01 03:26:48;;;;;;;0.97;0.47;;;23.80;58.40;;;;;;5105899;28;20538;-69
2022/08/01 03:29:27;;;;;;;0.50;0.40;;;23.80;52.60;;;;;;5104077;28;20190;-66
2022/08/01 03:31:55;;;;;;;0.30;0.30;;;23.90;53.40;;;;;;5084480;28;20226;-67
2022/08/01 03:34:22;;;;;;;6.20;0.40;;;23.50;50.70;;;;;;5103895;28;20265;-67
2022/08/01 03:36:57;;;;;;;0.90;0.40;;;23.60;52.40;;;;;;5101138;28;20175;-69
2022/08/01 03:39:30;;;;;;;2.33;0.50;;;23.80;50.30;;;;;;5103617;28;20217;-68
2022/08/01 03:42:06;;;;;;;1.00;0.60;;;23.70;48.00;;;;;;5104483;28;20179;-68
2022/08/01 03:44:38;;;;;;;2.53;0.50;;;23.70;47.20;;;;;;5110770;28;20188;-68
2022/08/01 03:47:09;;;;;;;1.27;0.37;;;23.90;46.90;;;;;;5102851;28;20176;-68
2022/08/01 03:49:42;;;;;;;2.87;0.40;;;23.60;46.60;;;;;;5094877;28;20182;-67
2022/08/01 03:52:11;;;;;;;0.93;0.73;;;23.40;44.90;;;;;;5094668;28;20171;-67
2022/08/01 03:54:44;;;;;;;0.50;0.40;;;23.70;46.80;;;;;;5094659;28;20172;-67
2022/08/01 03:57:11;;;;;;;0.30;0.30;;;23.60;41.80;;;;;;5094744;28;20523;-68
2022/08/01 03:59:40;;;;;;;0.60;0.47;;;23.20;41.50;;;;;;5107682;28;20210;-67
2022/08/01 04:02:08;;;;;;;0.50;0.30;;;23.40;42.40;;;;;;5095105;28;20636;-67
2022/08/01 04:04:35;;;;;;;0.33;0.33;;;23.40;42.40;;;;;;5102610;28;20618;-67
2022/08/01 04:07:07;;;;;;;2.43;0.40;;;23.00;42.30;;;;;;5096665;28;20186;-67
2022/08/01 04:09:34;;;;;;;1.43;0.40;;;23.10;46.20;;;;;;5112725;28;20191;-67
2022/08/01 04:12:03;;;;;;;0.43;0.40;;;23.20;45.70;;;;;;5109334;28;20334;-67
2022/08/01 04:14:31;;;;;;;1.03;0.50;;;23.10;44.50;;;;;;5102169;28;20178;-67
2022/08/01 04:16:58;;;;;;;0.83;0.50;;;22.80;45.70;;;;;;5100803;28;20567;-68
2022/08/01 04:19:26;;;;;;;2.67;0.70;;;22.90;45.90;;;;;;5103639;28;20202;-68
2022/08/01 04:21:53;;;;;;;0.70;0.60;;;22.90;45.70;;;;;;5104941;28;20178;-66
2022/08/01 04:24:23;;;;;;;0.63;0.57;;;22.90;44.90;;;;;;5093652;28;20183;-67
2022/08/01 04:26:52;;;;;;;0.70;0.70;;;23.10;45.50;;;;;;5075305;28;20230;-67
2022/08/01 04:29:22;;;;;;;0.57;0.57;;;23.20;45.00;;;;;;5101542;28;20185;-67
2022/08/01 04:31:51;;;;;;;2.77;0.50;;;23.10;44.00;;;;;;5089355;28;20222;-67
2022/08/01 04:34:23;;;;;;;0.97;0.43;;;23.20;43.30;;;;;;5112309;28;20188;-68
2022/08/01 04:36:52;;;;;;;0.80;0.33;;;23.00;41.80;;;;;;5093972;28;20220;-66
2022/08/01 04:39:20;;;;;;;0.90;0.40;;;22.90;41.90;;;;;;5096354;28;20224;-68
2022/08/01 04:41:50;;;;;;;1.53;0.30;;;22.80;42.80;;;;;;5093828;28;20652;-67
2022/08/01 04:44:17;;;;;;;0.37;0.30;;;22.70;40.40;;;;;;5093683;28;20179;-68
2022/08/01 04:46:48;;;;;;;2.13;0.50;;;22.80;41.20;;;;;;5093765;28;20178;-67
2022/08/01 04:49:16;;;;;;;0.70;0.50;;;22.60;40.40;;;;;;5093682;28;20209;-67
2022/08/01 04:52:03;;;;;;;2.30;0.60;;;22.50;40.90;;;;;;5093658;28;20171;-68
2022/08/01 04:54:33;;;;;;;1.27;0.47;;;22.60;40.80;;;;;;5093083;28;20186;-68
2022/08/01 04:57:01;;;;;;;1.23;0.50;;;22.50;39.00;;;;;;5092924;28;20171;-68
2022/08/01 04:59:41;;;;;;;0.90;0.40;;;22.40;39.60;;;;;;5093184;28;20264;-67
2022/08/01 05:02:19;;;;;;;0.30;0.30;;;22.20;39.60;;;;;;5094743;28;20181;-69
2022/08/01 05:04:47;;;;;;;0.80;0.43;;;21.90;40.50;;;;;;5111693;28;20197;-69
2022/08/01 05:07:15;;;;;;;2.17;0.40;;;22.00;40.90;;;;;;5108882;28;20202;-69
2022/08/01 05:09:45;;;;;;;0.57;0.50;;;22.10;40.70;;;;;;5093924;28;20182;-69
2022/08/01 05:12:13;;;;;;;3.70;0.63;;;22.00;41.10;;;;;;5105326;28;20180;-69
2022/08/01 05:14:41;;;;;;;0.87;0.40;;;21.90;39.30;;;;;;5093015;28;20541;-69
2022/08/01 05:17:09;;;;;;;2.00;0.40;;;21.70;40.80;;;;;;5093148;28;20207;-69
2022/08/01 05:19:38;;;;;;;0.57;0.30;;;21.80;41.90;;;;;;5099110;28;20255;-69
2022/08/01 05:22:07;;;;;;;0.90;0.60;;;21.50;41.10;;;;;;5113313;28;20257;-70
2022/08/01 05:24:37;;;;;;;0.83;0.40;;;21.40;42.60;;;;;;5112586;28;20209;-69
2022/08/01 05:27:07;;;;;;;0.50;0.40;;;21.20;42.70;;;;;;5113205;28;20175;-68
2022/08/01 05:29:35;;;;;;;0.30;0.30;;;21.20;42.50;;;;;;5109957;28;20186;-67
2022/08/01 05:32:03;;;;;;;0.43;0.30;;;21.10;42.20;;;;;;5092399;28;20262;-69
2022/08/01 05:34:30;;;;;;;0.67;0.60;;;20.90;42.40;;;;;;5092579;28;20645;-69
2022/08/01 05:36:58;;;;;;;1.17;0.50;;;20.70;44.00;;;;;;5095293;28;20182;-68
2022/08/01 05:39:25;;;;;;;0.30;0.30;;;20.70;43.00;;;;;;5092699;28;20265;-69
2022/08/01 05:41:53;;;;;;;0.80;0.30;;;20.50;44.10;;;;;;5097098;28;20189;-69
2022/08/01 05:44:20;;;;;;;0.87;0.40;;;20.30;43.70;;;;;;5112855;28;20217;-69
2022/08/01 05:46:48;;;;;;;1.60;0.70;;;20.00;45.50;;;;;;5105507;28;20239;-69
2022/08/01 05:49:15;;;;;;;0.47;0.40;;;19.90;47.60;;;;;;5095148;28;20206;-69
2022/08/01 05:51:42;;;;;;;1.67;0.50;;;19.80;48.40;;;;;;5112829;28;20589;-69
2022/08/01 05:54:10;;;;;;;0.40;0.40;;;19.70;50.10;;;;;;5112680;28;20175;-68
2022/08/01 05:56:37;;;;;;;0.80;0.50;;;19.60;49.50;;;;;;5112463;28;20171;-68
2022/08/01 05:59:05;;;;;;;1.20;0.60;;;19.50;50.00;;;;;;5093450;28;20296;-69
2022/08/01 06:01:32;;;;;;;0.50;0.50;;;19.30;48.40;;;;;;5092012;28;20183;-69
2022/08/01 06:03:59;;;;;;;1.27;0.70;;;19.30;50.40;;;;;;5092036;28;20249;-70
2022/08/01 06:06:27;;;;;;;0.57;0.50;;;19.30;50.90;;;;;;5092083;28;20206;-68
2022/08/01 06:08:54;;;;;;;0.87;0.57;;;19.20;52.00;;;;;;5091958;28;20182;-68
2022/08/01 06:11:21;;;;;;;0.50;0.40;;;19.10;51.00;;;;;;5094066;28;20175;-68
2022/08/01 06:13:49;;;;;;;1.77;0.43;;;19.00;51.20;;;;;;5112369;28;20172;-68
2022/08/01 06:16:17;;;;;;;1.47;0.63;;;19.00;50.90;;;;;;5111814;28;20202;-69
2022/08/01 06:18:44;;;;;;;1.00;0.60;;;18.90;51.60;;;;;;5091861;28;20255;-68
2022/08/01 06:21:11;;;;;;;1.67;0.83;;;18.80;51.70;;;;;;5091860;28;20852;-68
2022/08/01 06:23:41;;;;;;;1.17;0.70;;;18.80;53.10;;;;;;5091532;28;20236;-68
2022/08/01 06:26:08;;;;;;;1.40;0.80;;;18.60;55.30;;;;;;5073545;28;20638;-67
2022/08/01 06:28:36;;;;;;;1.23;0.90;;;18.60;56.40;;;;;;5111235;28;20216;-68
2022/08/01 06:31:03;;;;;;;0.70;0.70;;;18.50;56.90;;;;;;5111822;28;20307;-68
2022/08/01 06:33:31;;;;;;;0.87;0.70;;;18.40;60.20;;;;;;5112197;28;20285;-69
2022/08/01 06:35:58;;;;;;;2.87;0.60;;;18.30;60.60;;;;;;5112005;28;20223;-68
2022/08/01 06:38:26;;;;;;;1.97;0.60;;;18.20;62.00;;;;;;5093749;28;20215;-69
2022/08/01 06:40:53;;;;;;;0.80;0.50;;;18.20;60.00;;;;;;5091629;28;20174;-69
2022/08/01 06:43:21;;;;;;;0.50;0.50;;;18.10;63.50;;;;;;5091615;28;20175;-69
2022/08/01 06:45:49;;;;;;;2.40;0.73;;;17.90;67.60;;;;;;5111380;28;20183;-69
2022/08/01 06:48:16;;;;;;;3.07;0.70;;;17.90;65.20;;;;;;5095407;28;20187;-69
2022/08/01 06:50:43;;;;;;;2.40;0.80;;;17.80;65.90;;;;;;5091408;28;20193;-70
2022/08/01 06:53:11;;;;;;;1.30;0.77;;;17.70;68.80;;;;;;5091023;28;20258;-70
2022/08/01 06:55:38;;;;;;;4.30;0.70;;;17.60;69.70;;;;;;5091322;28;20183;-71
2022/08/01 06:58:05;;;;;;;1.63;0.80;;;17.50;70.10;;;;;;5105821;28;20266;-68
2022/08/01 07:00:33;;;;;;;0.87;0.70;;;17.50;73.70;;;;;;5111721;28;20182;-69
2022/08/01 07:03:00;;;;;;;1.67;0.90;;;17.40;75.70;;;;;;5105866;28;20673;-69
2022/08/01 07:05:30;;;;;;;0.80;0.80;;;17.30;79.40;;;;;;5091405;28;20670;-69
2022/08/01 07:07:58;;;;;;;1.90;0.70;;;17.20;79.60;;;;;;5104311;28;20803;-68
2022/08/01 07:10:25;;;;;;;2.30;0.73;;;17.00;86.00;;;;;;5111858;28;20182;-67
2022/08/01 07:12:53;;;;;;;4.60;1.00;;;16.80;86.30;;;;;;5102324;28;20544;-69
2022/08/01 07:15:26;;;;;;;1.00;0.70;;;16.80;90.60;;;;;;5110050;28;20190;-68
2022/08/01 07:17:53;;;;;;;3.40;0.90;;;16.60;92.80;;;;;;5101925;28;20666;-67
2022/08/01 07:20:21;;;;;;;1.97;0.80;;;16.50;92.90;;;;;;5073064;28;20550;-69
2022/08/01 07:22:48;;;;;;;1.83;0.90;;;16.40;94.30;;;;;;5091282;28;20640;-68
2022/08/01 07:25:15;;;;;;;1.10;0.70;;;16.50;94.00;;;;;;5097178;28;20645;-69
2022/08/01 07:27:44;;;;;;;0.97;0.90;;;16.40;95.90;;;;;;5111543;28;20170;-67
2022/08/01 07:30:12;;;;;;;1.20;0.60;;;16.40;99.30;;;;;;5111457;28;20175;-68
2022/08/01 07:32:39;;;;;;;2.33;0.80;;;16.30;97.70;;;;;;5102313;28;20592;-69
2022/08/01 07:35:07;;;;;;;2.33;0.80;;;16.20;98.90;;;;;;5098860;28;20171;-68
2022/08/01 07:37:34;;;;;;;1.17;0.80;;;16.10;99.00;;;;;;5100378;28;20189;-68
2022/08/01 07:40:03;;;;;;;1.70;0.90;;;16.00;99.90;;;;;;5108136;28;20230;-67
2022/08/01 07:42:31;;;;;;;0.60;0.60;;;15.90;99.90;;;;;;5093741;28;20276;-68
2022/08/01 07:44:59;;;;;;;0.63;0.57;;;16.00;99.90;;;;;;5072789;28;20671;-68
2022/08/01 07:47:26;;;;;;;1.10;0.63;;;15.90;99.90;;;;;;5091256;28;20182;-68
2022/08/01 07:50:00;;;;;;;1.30;0.80;;;15.80;99.90;;;;;;5091030;28;20171;-68
2022/08/01 07:52:28;;;;;;;2.23;0.60;;;15.70;99.90;;;;;;5091070;28;20171;-68
2022/08/01 07:54:56;;;;;;;1.10;0.70;;;15.80;99.90;;;;;;5091007;28;20191;-69
2022/08/01 07:57:24;;;;;;;1.53;0.60;;;15.70;99.90;;;;;;5109420;28;20186;-68
2022/08/01 07:59:52;;;;;;;3.07;1.00;;;15.70;99.90;;;;;;5111060;28;20394;-67
2022/08/01 08:02:19;;;;;;;2.20;0.93;;;15.60;99.90;;;;;;5111163;28;20219;-67
2022/08/01 08:04:46;;;;;;;2.17;0.90;;;15.50;99.90;;;;;;5097935;28;20183;-69
2022/08/01 08:07:14;;;;;;;1.30;0.90;;;15.40;99.90;;;;;;5112536;28;20178;-70
2022/08/01 08:09:41;;;;;;;1.80;0.90;;;15.30;99.90;;;;;;5116140;28;20550;-69
2022/08/01 08:12:08;;;;;;;3.33;0.83;;;15.20;99.90;;;;;;5114577;28;20260;-69
2022/08/01 08:14:36;;;;;;;0.70;0.70;;;15.10;99.90;;;;;;5095797;28;20224;-69
2022/08/01 08:17:04;;;;;;;3.30;1.17;;;14.90;99.90;;;;;;5110692;28;20543;-69
2022/08/01 08:19:33;;;;;;;1.80;0.90;;;14.90;99.90;;;;;;5102070;28;20215;-69
2022/08/01 08:22:03;;;;;;;3.30;1.07;;;14.80;99.90;;;;;;5095790;28;20207;-69
2022/08/01 08:24:30;;;;;;;4.03;1.10;;;14.70;99.90;;;;;;5095585;28;20274;-69
2022/08/01 08:27:00;;;;;;;1.73;1.00;;;14.60;99.90;;;;;;5095617;28;20551;-69
2022/08/01 08:29:29;;;;;;;6.07;1.10;;;14.60;99.90;;;;;;5107214;28;20182;-69
2022/08/01 08:31:57;;;;;;;1.43;1.00;;;14.50;99.90;;;;;;5095589;28;20219;-69
2022/08/01 08:34:26;;;;;;;1.70;1.10;;;14.50;99.90;;;;;;5077266;28;20548;-69
2022/08/01 08:36:55;;;;;;;1.60;1.03;;;14.40;99.90;;;;;;5107802;28;20185;-69
2022/08/01 08:39:22;;;;;;;2.10;1.10;;;14.40;99.90;;;;;;5115427;28;20297;-69
2022/08/01 08:41:50;;;;;;;3.70;1.30;;;14.30;99.90;;;;;;5110442;28;20174;-68
2022/08/01 08:44:19;;;;;;;3.33;1.30;;;14.30;99.90;;;;;;5115505;28;20202;-69
2022/08/01 08:46:50;;;;;;;1.60;1.20;;;14.20;99.90;;;;;;5115552;28;20174;-69
2022/08/01 08:49:25;;;;;;;1.70;1.10;;;14.10;99.90;;;;;;5115872;28;20189;-68
2022/08/01 08:51:53;;;;;;;2.97;1.27;;;14.00;99.90;;;;;;5099454;28;20189;-69
2022/08/01 08:54:23;;;;;;;3.63;1.47;;;13.90;99.90;;;;;;5095246;28;20174;-70
2022/08/01 08:56:53;;;;;;;3.23;1.83;;;13.80;99.90;;;;;;5097366;28;20281;-69
2022/08/01 08:59:24;;;;;;;5.80;2.50;;;13.70;99.90;;;;;;5115407;28;20320;-69
2022/08/01 09:01:52;;;;;;;4.87;2.53;;;13.60;99.90;;;;;;5115179;28;20170;-68
2022/08/01 09:04:24;;;;;;;5.13;2.60;;;13.60;99.90;;;;;;5114719;28;20704;-69
2022/08/01 09:06:53;;;;;;;8.37;2.40;;;13.50;99.90;;;;;;5097031;28;20189;-69
2022/08/01 09:09:21;;;;;;;3.90;2.13;;;13.50;99.90;;;;;;5106301;28;20208;-68
2022/08/01 09:11:49;;;;;;;4.03;2.50;;;13.40;99.90;;;;;;5108380;28;20178;-68
2022/08/01 09:14:29;;;;;;;2.47;1.97;;;13.20;99.90;;;;;;5094537;28;20178;-69
2022/08/01 09:17:12;;;;;;;6.03;2.13;;;13.10;99.90;;;;;;5096530;28;20172;-68
2022/08/01 09:19:51;;;;;;;5.37;3.03;;;13.10;99.90;;;;;;5090899;28;20238;-68
2022/08/01 09:22:23;;;;;;;6.40;2.40;;;13.00;99.90;;;;;;5060015;28;20179;-69
2022/08/01 09:25:11;;;;;;;5.53;2.67;;;13.00;99.90;;;;;;5095346;28;20194;-68
2022/08/01 09:27:39;;;;;;;6.93;2.87;;;12.90;99.90;;;;;;5077152;28;20178;-70
2022/08/01 09:30:18;;;;;;;6.93;2.70;;;12.90;99.90;;;;;;5078010;28;20182;-69
2022/08/01 09:33:00;;;;;;;4.23;2.47;;;13.00;99.90;;;;;;5094275;28;20233;-68
2022/08/01 09:35:35;;;;;;;2.17;1.47;;;12.90;99.90;;;;;;5094277;28;20591;-69
2022/08/01 09:38:14;;;;;;;3.83;1.80;;;13.00;99.90;;;;;;5099422;28;20188;-69
2022/08/01 09:40:53;;;;;;;3.33;1.90;;;13.00;99.90;;;;;;5094168;28;20279;-68
2022/08/01 09:43:23;;;;;;;2.83;1.50;;;12.90;99.90;;;;;;5094235;28;20176;-68
2022/08/01 09:45:51;;;;;;;2.50;1.50;;;12.80;99.90;;;;;;5094042;28;20184;-69
2022/08/01 09:48:21;;;;;;;2.83;1.30;;;12.70;99.90;;;;;;5093748;28;20188;-68
2022/08/01 09:50:51;;;;;;;2.30;1.43;;;12.50;99.90;;;;;;5094050;28;20181;-69
2022/08/01 09:53:20;;;;;;;1.67;1.30;;;12.40;99.90;;;;;;5094123;28;20518;-69
2022/08/01 09:55:50;;;;;;;3.43;1.57;;;12.30;99.90;;;;;;5111594;28;20182;-68
2022/08/01 09:58:20;;;;;;;2.70;1.63;;;12.10;99.90;;;;;;5114284;28;20179;-69
2022/08/01 10:01:00;;;;;;;2.50;1.80;;;12.20;99.90;;;;;;5114014;28;20182;-69
2022/08/01 10:03:29;;;;;;;2.77;1.30;;;12.20;99.90;;;;;;5114004;28;20193;-68
2022/08/01 10:05:58;;;;;;;2.23;1.57;;;12.20;99.90;;;;;;5094605;28;20275;-68
2022/08/01 10:08:25;;;;;;;2.90;1.70;;;12.20;99.90;;;;;;5093675;28;20178;-69
2022/08/01 10:11:25;;;;;;;4.77;2.73;;;12.20;99.90;;;;;;5073357;28;20224;-69
2022/08/01 10:13:53;;;;;;;5.53;2.20;;;12.20;99.90;;;;;;5050787;28;20198;-68
2022/08/01 10:16:21;;;;;;;1.93;1.40;;;12.20;99.90;;;;;;5073466;28;20167;-69
2022/08/01 10:18:50;;;;;;;4.10;1.60;;;12.10;99.90;;;;;;5073333;28;20268;-68
2022/08/01 10:21:18;;;;;;;3.90;1.50;;;11.90;99.90;;;;;;5073277;28;20176;-69
2022/08/01 10:23:46;;;;;;;1.77;1.50;;;11.90;99.90;;;;;;5055067;28;20185;-68
2022/08/01 10:26:16;;;;;;;2.43;1.50;;;11.70;99.90;;;;;;5073190;28;20569;-69
2022/08/01 10:28:47;;;;;;;3.67;2.30;;;11.50;99.90;;;;;;5072359;28;20194;-68
2022/08/01 10:31:19;;;;;;;3.13;2.27;;;11.40;99.90;;;;;;5055023;28;20231;-69
2022/08/01 10:33:48;;;;;;;1.80;1.50;;;11.40;99.90;;;;;;5073028;28;20276;-68
2022/08/01 10:36:17;;;;;;;3.13;1.60;;;11.40;99.90;;;;;;5072931;28;20185;-69
2022/08/01 10:38:45;;;;;;;2.13;1.57;;;11.40;99.90;;;;;;5072878;28;20205;-69
2022/08/01 10:41:15;;;;;;;2.60;1.40;;;11.50;99.90;;;;;;5073090;28;20170;-69
2022/08/01 10:43:43;;;;;;;2.80;1.57;;;11.50;99.90;;;;;;5072898;28;20388;-69
2022/08/01 10:46:11;;;;;;;2.67;1.70;;;11.60;99.90;;;;;;5072733;28;20174;-69
2022/08/01 10:48:57;;;;;;;1.60;1.40;;;11.50;99.90;;;;;;5073046;28;20542;-69
2022/08/01 10:51:25;;;;;;;2.53;1.50;;;11.30;99.90;;;;;;5072859;28;20182;-68
2022/08/01 10:53:54;;;;;;;1.80;1.30;;;11.30;99.90;;;;;;5054840;28;20263;-68
2022/08/01 10:56:23;;;;;;;3.83;1.70;;;11.20;99.90;;;;;;5072910;28;20334;-68
2022/08/01 10:59:00;;;;;;;1.50;1.40;;;11.10;99.90;;;;;;5054567;28;20224;-68
2022/08/01 11:01:32;;;;;;;2.67;1.77;;;11.00;99.90;;;;;;5072900;28;20256;-69
2022/08/01 11:04:08;;;;;;;2.40;1.60;;;10.90;99.90;;;;;;5072650;28;20172;-68
2022/08/01 11:06:36;;;;;;;2.77;1.50;;;10.80;99.90;;;;;;5073014;28;20181;-68
2022/08/01 11:09:05;;;;;;;2.13;1.60;;;10.90;99.90;;;;;;5072748;28;20201;-69
2022/08/01 11:11:53;;;;;;;3.13;1.47;;;10.90;99.90;;;;;;5072953;28;20175;-69
2022/08/01 11:14:21;;;;;;;2.77;1.57;;;10.90;99.90;;;;;;5072707;28;20195;-68
2022/08/01 11:16:48;;;;;;;2.70;1.47;;;11.00;99.90;;;;;;5072616;28;20249;-68
2022/08/01 11:19:16;;;;;;;4.57;1.50;;;11.00;99.90;;;;;;5072513;28;20217;-68
2022/08/01 11:21:56;;;;;;;4.13;1.20;;;11.00;99.90;;;;;;5054598;28;20547;-68
2022/08/01 11:24:48;;;;;;;2.43;1.43;;;11.10;99.90;;;;;;5072577;28;20254;-68
2022/08/01 11:27:20;;;;;;;2.70;1.50;;;11.10;99.90;;;;;;5072797;28;20198;-68
2022/08/01 11:30:09;;;;;;;2.47;1.17;;;11.00;99.90;;;;;;5072797;28;20178;-70
2022/08/01 11:32:54;;;;;;;1.97;1.50;;;10.90;99.90;;;;;;5072604;28;20729;-68
2022/08/01 11:35:26;;;;;;;2.17;1.50;;;10.70;99.90;;;;;;5054703;28;20174;-69
2022/08/01 11:37:57;;;;;;;1.50;1.40;;;10.40;99.90;;;;;;5100166;28;20645;-68
2022/08/01 11:40:26;;;;;;;2.37;1.60;;;10.30;99.90;;;;;;5114804;28;20598;-68
2022/08/01 11:43:20;;;;;;;2.23;1.73;;;10.10;99.90;;;;;;5116801;28;20167;-69
2022/08/01 11:45:52;;;;;;;2.00;1.57;;;9.90;99.90;;;;;;5113890;28;20268;-68
2022/08/01 11:48:24;;;;;;;3.37;2.07;;;9.80;99.90;;;;;;5101949;28;20286;-68
2022/08/01 11:50:57;;;;;;;3.27;1.80;;;9.70;99.90;;;;;;5117002;28;20222;-68
2022/08/01 11:53:25;;;;;;;4.53;1.77;;;9.60;99.90;;;;;;5116597;28;20190;-68
2022/08/01 11:55:54;;;;;;;2.80;1.70;;;9.50;99.90;;;;;;5116703;28;20175;-67
2022/08/01 11:58:24;;;;;;;1.70;1.57;;;9.50;99.90;;;;;;5116649;28;20264;-68
2022/08/01 12:00:57;;;;;;;4.57;2.43;;;9.40;99.90;;;;;;5116523;28;20199;-68
2022/08/01 12:03:31;;;;;;;2.13;1.77;;;9.30;99.90;;;;;;5116450;28;20179;-68
2022/08/01 12:05:59;;;;;;;2.20;1.57;;;9.30;99.90;;;;;;5098218;28;20192;-68
2022/08/01 12:08:36;;;;;;;4.60;1.80;;;9.20;99.90;;;;;;5116392;28;20171;-68
2022/08/01 12:11:06;;;;;;;4.63;2.03;;;9.10;99.90;;;;;;5098074;28;20186;-68
2022/08/01 12:13:43;;;;;;;3.67;1.80;;;9.00;99.90;;;;;;5116593;28;20309;-69
2022/08/01 12:16:11;;;;;;;4.07;1.70;;;9.00;99.90;;;;;;5116314;28;20584;-68
2022/08/01 12:18:43;;;;;;;2.20;1.77;;;8.80;99.90;;;;;;5116075;28;20236;-68
2022/08/01 12:21:11;;;;;;;1.87;1.67;;;8.80;99.90;;;;;;5097835;28;20217;-68
2022/08/01 12:23:39;;;;;;;3.90;1.80;;;8.70;99.90;;;;;;5115983;28;20257;-68
2022/08/01 12:26:06;;;;;;;4.90;1.90;;;8.70;99.90;;;;;;5116027;28;20259;-68
2022/08/01 12:28:40;;;;;;;3.00;1.87;;;8.60;99.90;;;;;;5116405;28;20172;-69
2022/08/01 12:31:08;;;;;;;2.67;1.90;;;8.50;99.90;;;;;;5115857;28;20214;-69
2022/08/01 12:33:35;;;;;;;2.07;1.60;;;8.50;99.90;;;;;;5116080;28;20525;-69
2022/08/01 12:36:03;;;;;;;2.77;1.43;;;8.40;99.90;;;;;;5116036;28;20610;-67
2022/08/01 12:38:32;;;;;;;3.87;2.27;;;8.30;99.90;;;;;;5115712;28;20216;-68
2022/08/01 12:41:00;;;;;;;2.93;1.77;;;8.30;99.90;;;;;;5115754;28;20665;-68
2022/08/01 12:43:31;;;;;;;2.00;1.60;;;8.30;99.90;;;;;;5115605;28;20267;-68
2022/08/01 12:46:00;;;;;;;3.53;2.10;;;8.20;99.90;;;;;;5115658;28;20259;-68
2022/08/01 12:48:30;;;;;;;2.13;1.77;;;8.20;99.90;;;;;;5115812;28;20179;-68
2022/08/01 12:51:00;;;;;;;2.50;2.00;;;8.20;99.90;;;;;;5096819;28;20551;-68
2022/08/01 12:53:28;;;;;;;1.77;1.67;;;8.10;99.90;;;;;;5115041;28;20176;-68
2022/08/01 12:55:56;;;;;;;2.33;1.80;;;8.10;99.90;;;;;;5115484;28;20231;-68
2022/08/01 12:58:24;;;;;;;2.57;1.60;;;8.00;99.90;;;;;;5113871;28;20183;-68
2022/08/01 13:01:05;;;;;;;3.13;1.97;;;8.00;99.90;;;;;;5115360;28;20269;-67
2022/08/01 13:03:32;;;;;;;3.73;1.87;;;8.00;99.90;;;;;;5096899;28;20181;-67
2022/08/01 13:06:00;;;;;;;2.23;1.73;;;7.90;99.90;;;;;;5097217;28;20642;-67
2022/08/01 13:08:33;;;;;;;3.53;1.70;;;7.80;99.90;;;;;;5113959;28;20186;-69